Terminal Aerodrome Forecast
Issued by NWS

Home | Current Version | Previous Version | Text Only | Print | Product List | Glossary On
Versions: 1 2 3 4 5 6 7 8 9 10 11 12 13 14 15 16 17 18
000
FTUS46 KSEW 201121
TAFCLM
TAF
KCLM 201121Z 2012/2112 27008KT P6SM OVC015
     FM202000 31011KT P6SM SCT020 BKN035
     FM210000 29012KT P6SM SCT050 BKN100
     FM210700 27008KT P6SM BKN050=

USA.gov is the U.S. government's official web portal to all federal, state and local government web resources and services.